Time;durP1;ratioP1;P1;durP2;ratioP2;P2;SDS_P1;SDS_P2;PMS_P1;PMS_P2;Temp;Humidity;BMP_temperature;BMP_pressure;BME280_temperature;BME280_humidity;BME280_pressure;Samples;Min_cycle;Max_cycle;Signal;HPM_P1;HPM_P2
2021/11/03 00:01:23;;;;;;;;;10.67;8.33;;;;;10.39;70.02;99471.69;5036365;28;62441;-93
2021/11/03 00:03:49;;;;;;;;;10.67;7.33;;;;;10.36;70.03;99472.50;5021096;28;45580;-94
2021/11/03 00:06:16;;;;;;;;;14.00;10.00;;;;;10.33;70.47;99458.44;5034452;28;47297;-93
2021/11/03 00:08:41;;;;;;;;;14.67;11.00;;;;;10.31;70.09;99462.75;5016198;28;45488;-93
2021/11/03 00:11:07;;;;;;;;;12.67;11.00;;;;;10.28;70.20;99453.06;5029380;28;50857;-93
2021/11/03 00:13:32;;;;;;;;;12.33;10.00;;;;;10.27;70.02;99451.28;5019919;28;56472;-95
2021/11/03 00:15:58;;;;;;;;;15.00;11.33;;;;;10.26;70.04;99453.03;5037839;28;46887;-93
2021/11/03 00:18:24;;;;;;;;;12.00;11.33;;;;;10.22;70.07;99448.56;5020722;28;45354;-94
2021/11/03 00:20:49;;;;;;;;;14.00;10.67;;;;;10.18;70.04;99449.31;5022979;28;45527;-93
2021/11/03 00:23:15;;;;;;;;;14.67;14.00;;;;;10.15;69.80;99447.50;5006134;28;45472;-94
2021/11/03 00:25:41;;;;;;;;;15.00;14.33;;;;;10.14;70.20;99440.50;5027526;28;45870;-93
2021/11/03 00:28:07;;;;;;;;;16.00;16.00;;;;;10.20;70.13;99444.13;5032655;28;45286;-93
2021/11/03 00:30:33;;;;;;;;;10.00;10.00;;;;;10.16;70.30;99438.78;5028975;28;45406;-93
2021/11/03 00:32:59;;;;;;;;;11.67;11.00;;;;;10.13;70.35;99427.31;5030802;28;45436;-93
2021/11/03 00:35:24;;;;;;;;;16.33;14.00;;;;;10.14;70.17;99431.72;5023968;28;57466;-94
2021/11/03 00:37:50;;;;;;;;;15.00;14.00;;;;;10.14;70.08;99426.47;5024270;28;45395;-93
2021/11/03 00:40:15;;;;;;;;;18.00;14.33;;;;;10.16;70.28;99425.69;5019022;28;52640;-93
2021/11/03 00:42:40;;;;;;;;;15.00;14.33;;;;;10.20;70.59;99428.38;5043650;28;45514;-94
2021/11/03 00:45:06;;;;;;;;;18.33;18.00;;;;;10.19;70.74;99419.63;5053405;28;46998;-93
2021/11/03 00:47:32;;;;;;;;;17.67;16.00;;;;;10.21;70.63;99420.53;5040354;28;45840;-94
2021/11/03 00:49:57;;;;;;;;;18.00;18.00;;;;;10.20;70.46;99415.28;5040160;28;47742;-94
2021/11/03 00:52:22;;;;;;;;;19.67;16.33;;;;;10.26;70.48;99420.66;5022519;28;56423;-95
2021/11/03 00:54:48;;;;;;;;;9.33;7.00;;;;;10.22;70.43;99417.09;5022343;28;47034;-94
2021/11/03 00:57:14;;;;;;;;;17.75;16.00;;;;;10.25;70.13;99418.91;5037936;28;45459;-94
2021/11/03 00:59:39;;;;;;;;;19.33;15.00;;;;;10.20;70.42;99416.16;5022469;28;45524;-94
2021/11/03 01:02:05;;;;;;;;;15.67;14.00;;;;;10.22;70.19;99424.06;5024140;28;45639;-93
2021/11/03 01:04:30;;;;;;;;;21.67;17.67;;;;;10.18;70.37;99420.47;5028665;28;47281;-93
2021/11/03 01:06:56;;;;;;;;;15.67;12.00;;;;;10.19;70.41;99427.50;5028647;28;46105;-94
2021/11/03 01:09:21;;;;;;;;;11.67;11.00;;;;;10.20;70.49;99425.75;5021826;28;48527;-94
2021/11/03 01:11:47;;;;;;;;;14.00;12.33;;;;;10.22;70.58;99422.34;5028029;28;48384;-94
2021/11/03 01:14:13;;;;;;;;;14.00;12.00;;;;;10.25;70.56;99421.53;5004493;28;48087;-93
2021/11/03 01:16:38;;;;;;;;;11.00;9.00;;;;;10.27;70.44;99431.19;5040601;28;45621;-93
2021/11/03 01:19:04;;;;;;;;;13.00;9.33;;;;;10.22;70.34;99418.81;5039473;28;45424;-93
2021/11/03 01:21:30;;;;;;;;;10.00;9.67;;;;;10.23;71.11;99418.84;5023953;28;45407;-93
2021/11/03 01:23:55;;;;;;;;;11.33;10.00;;;;;10.30;70.51;99430.41;5023177;28;47123;-95
2021/11/03 01:26:21;;;;;;;;;9.33;7.33;;;;;10.31;70.51;99431.28;5039270;28;54058;-94
2021/11/03 01:28:46;;;;;;;;;11.00;9.00;;;;;10.31;70.26;99434.78;5022438;28;45764;-94
2021/11/03 01:31:11;;;;;;;;;7.00;7.00;;;;;10.25;70.40;99418.91;5007160;28;45547;-95
2021/11/03 01:33:37;;;;;;;;;7.33;6.33;;;;;10.27;70.45;99419.81;5015750;28;48070;-94
2021/11/03 01:36:02;;;;;;;;;6.33;6.33;;;;;10.35;70.51;99441.88;5023233;28;45436;-94
2021/11/03 01:38:28;;;;;;;;;6.00;6.00;;;;;10.34;70.96;99436.59;5038855;28;45405;-94
2021/11/03 01:40:53;;;;;;;;;7.00;5.33;;;;;10.38;70.87;99441.97;5039637;28;45471;-93
2021/11/03 01:44:11;;;;;;;;;14.00;11.67;;;;;10.41;70.61;99442.91;5045889;28;46474;-94
2021/11/03 01:46:44;;;;;;;;;9.00;6.67;;;;;10.36;70.68;99432.28;4995754;28;45327;-94
2021/11/03 01:49:18;;;;;;;;;9.33;9.33;;;;;10.36;70.46;99441.03;4981853;28;45551;-94
2021/11/03 01:52:01;;;;;;;;;9.33;8.00;;;;;10.36;70.52;99437.53;5001177;28;45765;-95
2021/11/03 01:54:33;;;;;;;;;8.67;8.67;;;;;10.38;70.59;99447.22;4980055;28;47147;-94
2021/11/03 01:56:59;;;;;;;;;10.33;6.67;;;;;10.35;70.57;99435.75;4998420;28;45489;-94
2021/11/03 01:59:35;;;;;;;;;10.67;7.00;;;;;10.36;70.15;99440.16;4982673;28;45452;-95
2021/11/03 02:02:00;;;;;;;;;7.00;7.00;;;;;10.34;70.28;99440.09;4966702;28;45528;-94
2021/11/03 02:04:26;;;;;;;;;8.00;6.00;;;;;10.31;70.42;99426.91;4996760;28;47336;-94
2021/11/03 02:06:52;;;;;;;;;7.00;7.00;;;;;10.33;70.65;99437.44;4964277;28;45451;-94
2021/11/03 02:09:17;;;;;;;;;9.67;7.67;;;;;10.31;70.46;99441.78;4980938;28;45811;-93
2021/11/03 02:11:43;;;;;;;;;6.00;5.00;;;;;10.34;71.14;99437.47;4998214;28;45437;-94
2021/11/03 02:14:08;;;;;;;;;9.00;8.00;;;;;10.34;70.75;99441.81;4981558;28;59807;-94
2021/11/03 02:16:35;;;;;;;;;6.33;5.67;;;;;10.37;70.41;99441.91;4947147;28;45742;-95
2021/11/03 02:19:02;;;;;;;;;10.00;9.00;;;;;10.27;70.26;99432.94;4946774;28;45393;-95
2021/11/03 02:21:31;;;;;;;;;6.00;6.00;;;;;10.25;70.48;99438.16;4958648;28;45570;-94
2021/11/03 02:24:15;;;;;;;;;8.00;8.00;;;;;10.28;69.76;99445.22;5021256;28;48405;-93
2021/11/03 02:26:45;;;;;;;;;11.00;9.00;;;;;10.22;70.16;99432.81;5042394;28;45364;-95
2021/11/03 02:29:11;;;;;;;;;11.33;8.00;;;;;10.20;70.34;99436.25;5045113;28;45328;-94
2021/11/03 02:31:38;;;;;;;;;11.33;7.33;;;;;10.22;70.64;99438.06;5025737;28;45265;-94
2021/11/03 02:34:06;;;;;;;;;9.00;9.00;;;;;10.16;70.26;99422.16;5036221;28;47187;-94
2021/11/03 02:36:31;;;;;;;;;10.67;6.67;;;;;10.18;70.76;99425.69;5039148;28;45447;-94
2021/11/03 02:38:57;;;;;;;;;7.00;7.00;;;;;10.19;69.40;99432.72;5023497;28;45321;-94
2021/11/03 02:44:20;;;;;;;;;9.33;7.67;;;;;10.20;70.86;99431.00;5208748;22;45606;-91
2021/11/03 02:46:45;;;;;;;;;10.00;9.33;;;;;10.18;70.75;99436.19;5072558;28;45518;-92
2021/11/03 02:49:11;;;;;;;;;11.00;9.67;;;;;10.21;70.26;99438.91;5034104;28;45500;-92
2021/11/03 02:51:38;;;;;;;;;10.67;8.33;;;;;10.20;70.32;99438.88;5047641;27;45394;-93
2021/11/03 02:54:06;;;;;;;;;11.67;8.33;;;;;10.26;70.82;99450.41;5028347;28;47477;-92
2021/11/03 02:56:37;;;;;;;;;7.00;6.00;;;;;10.22;70.71;99443.31;5037624;28;45463;-92
2021/11/03 02:59:06;;;;;;;;;9.33;8.33;;;;;10.21;70.73;99444.16;5037604;28;45450;-92
2021/11/03 03:01:36;;;;;;;;;13.33;10.00;;;;;10.28;70.89;99455.69;5037949;28;45905;-93
2021/11/03 03:04:02;;;;;;;;;11.33;8.33;;;;;10.22;69.80;99451.19;5045298;28;48397;-94
2021/11/03 03:06:28;;;;;;;;;7.67;7.67;;;;;10.20;70.45;99447.63;5079425;28;45265;-93
2021/11/03 03:08:55;;;;;;;;;13.67;11.00;;;;;10.19;70.99;99444.94;5065904;28;45808;-92
2021/11/03 03:11:21;;;;;;;;;13.67;10.67;;;;;10.19;70.89;99445.84;5064589;28;45374;-92
2021/11/03 03:13:46;;;;;;;;;11.67;9.67;;;;;10.19;70.86;99448.47;5040844;28;47322;-93
2021/11/03 03:16:12;;;;;;;;;8.00;7.00;;;;;10.19;70.67;99448.47;5036885;28;45457;-93
2021/11/03 03:18:37;;;;;;;;;8.67;6.67;;;;;10.21;71.08;99454.63;5056906;28;51630;-93
2021/11/03 03:21:03;;;;;;;;;7.67;7.67;;;;;10.22;70.77;99459.03;5036891;28;64573;-92
2021/11/03 03:23:28;;;;;;;;;9.00;9.00;;;;;10.22;70.39;99458.16;5036699;27;48068;-93
2021/11/03 03:25:55;;;;;;;;;9.67;8.00;;;;;10.16;71.18;99457.13;5040551;28;59041;-93
2021/11/03 03:28:20;;;;;;;;;10.33;9.00;;;;;10.13;71.05;99450.91;5056334;28;45484;-93
2021/11/03 03:30:46;;;;;;;;;11.00;9.00;;;;;10.13;71.21;99453.53;5056633;28;46374;-94
2021/11/03 03:33:11;;;;;;;;;6.00;6.00;;;;;10.14;71.49;99455.31;5040249;28;48250;-94
2021/11/03 03:35:36;;;;;;;;;10.00;7.00;;;;;10.14;71.32;99457.94;5036806;28;56601;-92
2021/11/03 03:38:02;;;;;;;;;9.67;9.67;;;;;10.17;70.88;99468.53;5040352;28;48924;-93
2021/11/03 03:40:28;;;;;;;;;7.00;5.00;;;;;10.09;70.84;99467.44;5040978;28;45401;-92
2021/11/03 03:42:53;;;;;;;;;6.67;6.67;;;;;10.13;71.34;99472.78;5035471;28;66617;-92
2021/11/03 03:45:18;;;;;;;;;8.33;6.33;;;;;10.05;71.49;99469.97;5036002;28;46879;-93
2021/11/03 03:47:44;;;;;;;;;10.00;7.00;;;;;10.09;71.57;99473.56;5031365;28;51088;-93
2021/11/03 03:50:09;;;;;;;;;7.33;7.33;;;;;10.12;71.69;99472.75;5045599;28;45237;-95
2021/11/03 03:52:35;;;;;;;;;10.33;9.67;;;;;10.04;71.97;99464.69;5048489;28;61583;-94
2021/11/03 03:55:00;;;;;;;;;10.33;9.33;;;;;10.11;72.00;99477.09;5047525;28;67897;-95
2021/11/03 03:57:25;;;;;;;;;9.67;9.00;;;;;10.10;72.16;99477.09;5050554;28;58033;-94
2021/11/03 03:59:51;;;;;;;;;12.67;10.33;;;;;10.08;72.20;99471.78;5023807;28;45922;-93
2021/11/03 04:02:16;;;;;;;;;10.00;9.00;;;;;10.04;72.31;99475.19;5038722;28;53092;-95
2021/11/03 04:04:42;;;;;;;;;13.33;11.33;;;;;10.04;72.01;99478.69;5041055;28;58090;-94
2021/11/03 04:07:07;;;;;;;;;14.67;10.33;;;;;10.05;71.98;99484.84;5058081;28;45320;-93
2021/11/03 04:09:32;;;;;;;;;11.00;10.33;;;;;10.03;72.17;99484.78;5040949;28;45887;-95
2021/11/03 04:11:58;;;;;;;;;14.33;13.00;;;;;10.09;72.07;99499.78;5041743;28;59155;-95
2021/11/03 04:14:23;;;;;;;;;16.00;14.33;;;;;10.00;72.47;99487.28;5040955;28;45746;-94
2021/11/03 04:16:49;;;;;;;;;18.33;18.33;;;;;9.99;72.22;99488.16;5041121;28;49661;-93
2021/11/03 04:19:14;;;;;;;;;19.00;13.33;;;;;9.90;71.91;99482.66;5055461;28;46691;-95
2021/11/03 04:21:39;;;;;;;;;15.00;14.33;;;;;9.91;71.85;99492.31;5047332;28;47083;-94
2021/11/03 04:24:05;;;;;;;;;12.00;10.00;;;;;9.89;71.97;99497.50;5041455;28;64731;-95
2021/11/03 04:26:35;;;;;;;;;16.33;14.33;;;;;9.89;72.02;99500.13;5054662;28;45374;-95
2021/11/03 04:29:01;;;;;;;;;16.00;14.00;;;;;9.94;71.92;99514.25;5053348;28;45385;-94
2021/11/03 04:31:27;;;;;;;;;14.00;11.33;;;;;9.84;71.54;99504.34;5059451;28;47755;-94
2021/11/03 04:33:52;;;;;;;;;14.67;14.67;;;;;9.84;72.21;99514.84;5061842;28;45308;-94
2021/11/03 04:36:19;;;;;;;;;17.00;13.67;;;;;9.84;71.95;99515.69;5045435;28;45450;-94
2021/11/03 04:38:45;;;;;;;;;9.00;9.00;;;;;9.83;72.23;99511.31;5063033;28;45449;-95
2021/11/03 04:41:11;;;;;;;;;11.67;11.67;;;;;9.82;72.26;99511.25;5046770;28;48379;-95
2021/11/03 04:43:36;;;;;;;;;13.67;10.33;;;;;9.79;71.98;99513.81;5038628;28;45459;-95
2021/11/03 04:46:02;;;;;;;;;10.33;9.00;;;;;9.79;72.53;99517.31;5026943;28;52456;-95
2021/11/03 04:48:27;;;;;;;;;15.67;12.33;;;;;9.79;72.62;99521.69;5070689;28;45476;-95
2021/11/03 04:50:53;;;;;;;;;14.67;12.33;;;;;9.79;72.43;99519.06;5023744;28;47212;-95
2021/11/03 04:53:18;;;;;;;;;17.67;15.67;;;;;9.75;72.40;99507.59;5052135;28;45504;-95
2021/11/03 04:55:44;;;;;;;;;21.67;19.33;;;;;9.79;72.46;99508.59;5056961;28;51902;-94
2021/11/03 04:58:10;;;;;;;;;15.67;13.33;;;;;9.80;72.43;99523.44;5038871;28;45695;-94
2021/11/03 05:00:36;;;;;;;;;18.33;14.67;;;;;9.76;72.23;99517.25;5039079;28;72041;-94
2021/11/03 05:03:03;;;;;;;;;17.00;14.50;;;;;9.78;72.02;99525.13;5039614;28;45491;-94
2021/11/03 05:05:28;;;;;;;;;18.67;12.33;;;;;9.73;72.33;99519.75;5040491;28;45466;-94
2021/11/03 05:07:54;;;;;;;;;16.67;14.67;;;;;9.71;72.47;99518.84;5042795;28;64129;-94
2021/11/03 05:10:20;;;;;;;;;16.67;14.33;;;;;9.75;72.90;99522.41;5043712;28;48476;-94
2021/11/03 05:12:45;;;;;;;;;15.00;12.67;;;;;9.76;72.27;99521.59;5043130;28;45712;-94
2021/11/03 05:15:11;;;;;;;;;19.00;16.00;;;;;9.80;73.07;99533.91;5037335;28;58126;-94
2021/11/03 05:17:37;;;;;;;;;20.00;15.67;;;;;9.81;72.90;99541.84;5046109;27;53201;-94
2021/11/03 05:20:04;;;;;;;;;13.33;13.33;;;;;9.84;72.72;99539.28;5050230;28;47255;-94
2021/11/03 05:22:29;;;;;;;;;15.00;15.00;;;;;9.81;72.58;99536.59;5064948;28;46066;-94
2021/11/03 05:24:55;;;;;;;;;14.67;14.00;;;;;9.82;72.74;99533.13;5046861;28;45468;-95
2021/11/03 05:27:20;;;;;;;;;21.67;16.00;;;;;9.86;72.47;99538.47;5031003;28;45166;-94
2021/11/03 05:29:45;;;;;;;;;18.33;16.33;;;;;9.82;72.97;99530.50;5027075;27;65980;-94
2021/11/03 05:32:11;;;;;;;;;17.33;15.67;;;;;9.86;72.68;99535.84;5042778;28;49477;-94
2021/11/03 05:34:36;;;;;;;;;18.33;16.00;;;;;9.86;72.64;99536.72;5043136;28;45446;-94
2021/11/03 05:37:02;;;;;;;;;19.33;15.00;;;;;9.81;72.40;99526.13;5043447;28;45398;-94
2021/11/03 05:39:28;;;;;;;;;20.00;17.33;;;;;9.82;72.92;99534.84;5040859;28;47308;-93
2021/11/03 05:41:53;;;;;;;;;22.67;18.00;;;;;9.85;72.86;99540.19;5038994;28;62677;-94
2021/11/03 05:44:18;;;;;;;;;21.33;16.00;;;;;9.82;72.19;99535.75;5039455;28;56361;-93
2021/11/03 05:46:52;;;;;;;;;15.33;15.00;;;;;9.85;72.25;99537.56;5056034;28;45597;-94
2021/11/03 05:49:20;;;;;;;;;19.67;18.33;;;;;9.85;72.45;99542.81;5039754;28;47330;-92
2021/11/03 05:51:46;;;;;;;;;23.67;15.00;;;;;9.84;72.06;99538.44;5041775;28;45710;-93
2021/11/03 05:54:12;;;;;;;;;15.00;14.00;;;;;9.83;72.32;99539.25;5041525;28;45348;-92
2021/11/03 05:56:38;;;;;;;;;18.67;17.33;;;;;9.80;72.63;99539.16;5039312;28;45477;-92
2021/11/03 05:59:03;;;;;;;;;16.67;15.00;;;;;9.83;72.10;99544.50;5041506;28;47138;-93
2021/11/03 06:01:29;;;;;;;;;20.33;16.00;;;;;9.80;72.44;99540.06;5072188;28;45373;-93
2021/11/03 06:03:54;;;;;;;;;20.00;18.33;;;;;9.82;72.15;99558.44;5054892;28;51336;-93
2021/11/03 06:06:23;;;;;;;;;18.67;15.67;;;;;9.85;72.33;99558.53;5042168;28;45230;-93
2021/11/03 06:08:49;;;;;;;;;20.33;19.67;;;;;9.84;72.35;99554.16;5052473;28;47187;-92
2021/11/03 06:11:16;;;;;;;;;21.67;16.33;;;;;9.82;72.37;99554.09;5049823;28;45290;-92
2021/11/03 06:13:42;;;;;;;;;21.00;17.67;;;;;9.83;71.34;99565.47;5044001;28;45297;-93
2021/11/03 06:16:07;;;;;;;;;17.33;16.00;;;;;9.82;72.31;99567.19;5037507;28;45379;-93
2021/11/03 06:18:33;;;;;;;;;19.00;19.00;;;;;9.79;72.21;99561.00;5059173;28;45720;-93
2021/11/03 06:20:58;;;;;;;;;23.67;16.67;;;;;9.82;72.50;99559.34;5037876;28;61209;-93
2021/11/03 06:23:24;;;;;;;;;17.67;16.00;;;;;9.85;72.18;99563.78;5039792;28;48961;-91
2021/11/03 06:25:49;;;;;;;;;19.67;14.67;;;;;9.83;72.01;99566.38;5043822;28;45560;-92
2021/11/03 06:28:15;;;;;;;;;20.67;16.67;;;;;9.78;72.31;99559.19;5036470;28;59223;-92
2021/11/03 06:30:40;;;;;;;;;19.00;15.33;;;;;9.82;72.00;99575.06;5039067;28;45497;-92
2021/11/03 06:33:06;;;;;;;;;18.00;14.00;;;;;9.79;72.26;99572.34;5045300;28;45344;-94
2021/11/03 06:35:32;;;;;;;;;17.33;14.33;;;;;9.80;71.82;99578.47;5039911;28;45348;-94
2021/11/03 06:37:58;;;;;;;;;19.00;16.33;;;;;9.80;71.93;99586.34;5040301;28;47472;-93
2021/11/03 06:40:24;;;;;;;;;15.67;14.67;;;;;9.77;72.07;99583.63;5022918;28;45544;-92
2021/11/03 06:42:50;;;;;;;;;14.67;11.00;;;;;9.80;71.57;99582.00;5036074;28;45517;-93
2021/11/03 06:45:15;;;;;;;;;21.67;19.33;;;;;9.77;71.77;99587.13;5038237;28;46043;-93
2021/11/03 06:47:41;;;;;;;;;13.00;13.00;;;;;9.72;71.47;99591.34;5048236;28;48381;-92
2021/11/03 06:50:07;;;;;;;;;14.00;12.67;;;;;9.69;71.78;99594.75;5050203;28;59587;-93
2021/11/03 06:52:33;;;;;;;;;17.00;15.00;;;;;9.75;71.69;99606.28;5064989;28;45323;-93
2021/11/03 06:54:58;;;;;;;;;17.33;14.67;;;;;9.69;71.08;99602.63;5048402;28;45433;-94
2021/11/03 06:57:24;;;;;;;;;14.67;13.67;;;;;9.68;71.90;99598.25;5061077;28;47342;-93
2021/11/03 06:59:50;;;;;;;;;18.67;16.00;;;;;9.68;71.96;99603.50;5041628;28;45386;-93
2021/11/03 07:02:16;;;;;;;;;16.33;14.67;;;;;9.69;71.81;99628.81;5042072;28;45346;-92
2021/11/03 07:04:41;;;;;;;;;16.00;15.33;;;;;9.60;71.27;99625.94;5041486;28;45489;-93
2021/11/03 07:07:07;;;;;;;;;16.33;16.00;;;;;9.50;71.91;99627.38;5037126;28;48554;-92
2021/11/03 07:09:32;;;;;;;;;19.00;15.67;;;;;9.44;71.83;99627.16;5040649;28;65524;-93
2021/11/03 07:11:58;;;;;;;;;17.00;14.00;;;;;9.45;71.89;99628.97;5038977;28;45472;-92
2021/11/03 07:14:23;;;;;;;;;15.00;15.00;;;;;9.42;72.20;99631.47;5023347;28;50705;-93
2021/11/03 07:16:49;;;;;;;;;17.67;17.67;;;;;9.50;71.89;99651.84;5043314;28;48194;-93
2021/11/03 07:19:14;;;;;;;;;14.67;14.67;;;;;9.45;71.81;99647.31;5043384;28;45319;-92
2021/11/03 07:21:39;;;;;;;;;18.00;15.00;;;;;9.42;72.29;99652.44;5041415;28;45498;-93
2021/11/03 07:24:05;;;;;;;;;12.33;11.00;;;;;9.45;72.23;99663.03;5027022;28;45431;-92
2021/11/03 07:26:30;;;;;;;;;24.67;19.00;;;;;9.47;72.79;99658.72;5038217;28;46921;-84
2021/11/03 07:28:56;;;;;;;;;18.00;16.00;;;;;9.51;72.12;99671.06;5070562;28;52995;-84
2021/11/03 07:31:21;;;;;;;;;21.50;18.25;;;;;9.53;71.71;99672.03;5069343;27;45424;-84
2021/11/03 07:33:47;;;;;;;;;18.00;13.67;;;;;9.53;71.99;99672.03;5070557;27;45557;-84
2021/11/03 07:36:14;;;;;;;;;15.33;14.33;;;;;9.55;71.79;99683.44;5068671;28;46085;-86
2021/11/03 07:38:39;;;;;;;;;20.75;16.25;;;;;9.56;71.61;99686.94;5074429;28;45441;-83
2021/11/03 07:41:05;;;;;;;;;17.33;14.00;;;;;9.54;72.04;99686.88;5076483;27;45476;-83
2021/11/03 07:43:31;;;;;;;;;24.67;18.00;;;;;9.56;71.68;99692.19;5064545;28;59336;-84
2021/11/03 07:45:57;;;;;;;;;18.33;14.67;;;;;9.51;71.69;99689.41;5067632;28;46111;-84
2021/11/03 07:48:24;;;;;;;;;18.00;18.00;;;;;9.48;71.93;99689.31;5065400;27;45452;-84
2021/11/03 07:50:55;;;;;;;;;14.67;13.33;;;;;9.48;71.67;99700.66;5071563;27;45563;-84
2021/11/03 07:53:21;;;;;;;;;19.00;17.25;;;;;9.46;71.72;99701.44;5069129;27;45480;-84
2021/11/03 07:55:50;;;;;;;;;14.00;14.00;;;;;9.45;71.70;99710.16;5052409;28;47249;-85
2021/11/03 07:58:18;;;;;;;;;17.33;16.67;;;;;9.42;71.31;99712.69;5065995;27;45760;-84
2021/11/03 08:00:43;;;;;;;;;23.00;18.67;;;;;9.40;71.57;99715.25;5068213;27;45590;-85
2021/11/03 08:03:09;;;;;;;;;24.67;16.33;;;;;9.37;71.30;99715.16;5066116;27;54151;-84
2021/11/03 08:05:34;;;;;;;;;19.33;16.00;;;;;9.34;71.55;99708.06;5057195;28;47035;-85
2021/11/03 08:08:03;;;;;;;;;15.33;13.67;;;;;9.36;71.92;99718.59;5063097;28;45543;-85
2021/11/03 08:10:28;;;;;;;;;21.33;18.00;;;;;9.38;72.22;99717.81;5063787;28;45551;-85
2021/11/03 08:12:56;;;;;;;;;22.00;19.67;;;;;9.44;71.48;99729.31;5066738;28;45570;-85
2021/11/03 08:15:21;;;;;;;;;20.67;18.33;;;;;9.45;71.58;99726.78;5082599;27;45582;-85
2021/11/03 08:17:47;;;;;;;;;22.00;16.33;;;;;9.47;71.68;99732.06;5066505;28;45346;-85
2021/11/03 08:20:16;;;;;;;;;19.67;13.33;;;;;9.51;71.69;99736.56;5096661;27;65624;-86
2021/11/03 08:22:41;;;;;;;;;14.00;14.00;;;;;9.50;71.43;99732.16;5068359;27;45684;-85
2021/11/03 08:26:05;;;;;;;;;21.25;18.25;;;;;9.59;71.75;99744.66;5067532;28;45474;-85
2021/11/03 08:28:32;;;;;;;;;24.75;18.00;;;;;9.60;71.68;99747.34;5062329;28;45450;-85
2021/11/03 08:30:57;;;;;;;;;26.00;18.00;;;;;9.63;72.17;99759.66;5050907;28;53340;-85
2021/11/03 08:33:38;;;;;;;;;20.00;18.33;;;;;9.70;72.15;99755.50;5069007;28;45573;-84
2021/11/03 08:36:04;;;;;;;;;19.00;17.67;;;;;9.81;71.71;99756.75;5069157;27;45488;-85
2021/11/03 08:38:29;;;;;;;;;21.00;14.00;;;;;9.93;71.58;99760.59;5036996;28;45526;-85
2021/11/03 08:40:55;;;;;;;;;22.00;19.00;;;;;9.99;71.53;99760.81;5061135;28;62732;-84
2021/11/03 08:43:23;;;;;;;;;20.00;17.67;;;;;10.06;71.22;99767.13;5070798;27;45472;-84
2021/11/03 08:45:52;;;;;;;;;16.33;15.00;;;;;10.12;70.51;99776.94;5069884;27;46156;-84
2021/11/03 08:48:18;;;;;;;;;16.33;14.33;;;;;10.14;69.76;99770.00;5069433;28;46055;-84
2021/11/03 08:50:43;;;;;;;;;20.67;14.33;;;;;10.20;70.08;99770.19;5060323;27;45529;-84
2021/11/03 08:53:09;;;;;;;;;27.33;18.67;;;;;10.21;69.50;99766.72;5066379;28;45708;-84
2021/11/03 08:55:34;;;;;;;;;17.67;15.67;;;;;10.26;70.26;99766.84;5069303;28;46372;-84
2021/11/03 08:58:01;;;;;;;;;19.67;17.67;;;;;10.34;68.59;99772.34;5075752;28;45432;-84
2021/11/03 09:00:29;;;;;;;;;31.33;25.33;;;;;10.40;69.93;99772.53;5067323;28;45486;-85
2021/11/03 09:02:55;;;;;;;;;19.33;13.00;;;;;10.48;70.06;99772.78;5087224;27;45497;-84
2021/11/03 09:05:21;;;;;;;;;20.00;19.00;;;;;10.56;70.29;99776.56;5067301;28;50327;-84
2021/11/03 09:07:46;;;;;;;;;20.00;19.67;;;;;10.66;70.64;99777.72;5071822;28;45400;-85
2021/11/03 09:10:12;;;;;;;;;19.00;15.00;;;;;10.75;69.99;99779.69;5071937;27;45929;-85
2021/11/03 09:12:39;;;;;;;;;21.67;19.67;;;;;10.78;69.27;99785.03;5059585;28;45557;-84
2021/11/03 09:15:08;;;;;;;;;24.67;18.00;;;;;10.81;69.08;99786.88;5068482;27;45676;-86
2021/11/03 09:17:33;;;;;;;;;18.67;17.00;;;;;10.82;67.76;99784.28;5065782;28;45539;-86
2021/11/03 09:19:59;;;;;;;;;20.33;17.67;;;;;10.87;69.02;99786.16;5067544;27;45508;-85
2021/11/03 09:22:24;;;;;;;;;19.00;16.00;;;;;10.89;68.83;99789.72;5065431;28;65725;-84
2021/11/03 09:24:49;;;;;;;;;22.33;19.33;;;;;10.80;68.69;99792.94;5069386;28;45549;-84
2021/11/03 09:27:15;;;;;;;;;20.33;16.67;;;;;10.79;68.79;99796.44;5064698;27;45735;-84
2021/11/03 09:29:48;;;;;;;;;19.75;19.75;;;;;10.76;68.60;99805.13;5065214;28;51437;-84
2021/11/03 09:32:15;;;;;;;;;18.75;18.25;;;;;10.73;69.14;99805.00;5069423;27;45660;-84
2021/11/03 09:34:42;;;;;;;;;22.75;19.00;;;;;10.73;69.00;99811.16;5084418;27;46133;-85
2021/11/03 09:37:07;;;;;;;;;21.50;20.75;;;;;10.72;69.70;99811.13;5071488;27;45370;-84
2021/11/03 09:39:33;;;;;;;;;21.75;18.75;;;;;10.78;69.49;99813.91;5066040;28;45480;-84
2021/11/03 09:41:58;;;;;;;;;28.00;21.00;;;;;10.83;69.24;99812.31;5056821;28;68634;-84
2021/11/03 09:44:28;;;;;;;;;21.67;19.33;;;;;10.85;69.54;99814.97;5061215;28;47273;-85
2021/11/03 09:47:12;;;;;;;;;17.33;14.67;;;;;10.92;69.27;99819.59;5071682;28;46429;-84
2021/11/03 09:49:39;;;;;;;;;15.67;14.00;;;;;10.99;68.91;99822.38;5069846;28;45716;-84
2021/11/03 09:52:32;;;;;;;;;18.33;18.33;;;;;10.93;68.60;99818.72;5053124;27;45568;-85
2021/11/03 09:55:00;;;;;;;;;19.67;18.67;;;;;10.84;68.06;99819.38;5052312;28;46140;-84
2021/11/03 09:57:49;;;;;;;;;18.67;15.67;;;;;10.84;67.66;99832.50;5066561;28;45740;-85
2021/11/03 10:00:43;;;;;;;;;18.50;18.50;;;;;10.81;68.97;99829.75;5061219;27;45425;-85
2021/11/03 10:03:11;;;;;;;;;18.00;12.67;;;;;10.83;68.63;99832.41;5066465;28;45639;-85
2021/11/03 10:05:51;;;;;;;;;16.33;16.33;;;;;10.82;68.67;99834.16;5056765;28;47260;-85
2021/11/03 10:08:19;;;;;;;;;17.67;14.67;;;;;10.79;68.94;99830.56;5060945;28;45353;-85
2021/11/03 10:11:02;;;;;;;;;20.50;15.25;;;;;10.77;69.35;99837.50;5051369;28;45430;-85
2021/11/03 10:13:31;;;;;;;;;20.00;18.00;;;;;10.77;69.27;99834.88;5063565;27;46409;-85
2021/11/03 10:16:15;;;;;;;;;21.00;18.00;;;;;10.80;69.54;99841.09;5068493;28;46384;-84
2021/11/03 10:18:52;;;;;;;;;19.67;16.00;;;;;10.86;69.05;99843.03;5062271;27;45701;-85
2021/11/03 10:21:19;;;;;;;;;17.00;15.00;;;;;10.91;69.31;99830.91;5064294;27;45491;-85
2021/11/03 10:24:06;;;;;;;;;14.67;14.67;;;;;10.97;69.26;99838.09;5032104;28;45587;-84
2021/11/03 10:26:58;;;;;;;;;17.67;16.00;;;;;11.05;68.51;99830.44;5050964;27;45551;-85
2021/11/03 10:29:49;;;;;;;;;23.00;16.00;;;;;11.12;69.36;99837.63;5057747;28;45506;-86
2021/11/03 10:32:24;;;;;;;;;19.33;15.33;;;;;11.17;69.14;99829.88;5058272;28;45795;-85
2021/11/03 10:35:00;;;;;;;;;16.33;14.33;;;;;11.20;69.06;99834.34;5059149;28;45642;-85
2021/11/03 10:37:32;;;;;;;;;18.33;14.00;;;;;11.24;69.02;99831.84;5065615;28;45484;-85
2021/11/03 10:40:04;;;;;;;;;17.00;17.00;;;;;11.34;69.16;99840.00;5063535;28;45579;-85
2021/11/03 10:42:51;;;;;;;;;19.33;16.00;;;;;11.40;68.33;99845.41;5076707;27;45464;-85
2021/11/03 10:45:26;;;;;;;;;17.00;15.67;;;;;11.46;68.43;99850.84;5074492;27;45363;-85
2021/11/03 10:48:07;;;;;;;;;21.00;14.33;;;;;11.46;67.84;99848.19;5019253;28;46142;-85
2021/11/03 10:50:56;;;;;;;;;16.67;14.67;;;;;11.46;68.52;99852.56;5065264;28;45822;-85
2021/11/03 10:53:46;;;;;;;;;16.67;12.33;;;;;11.48;68.71;99842.97;5076837;27;45537;-85
2021/11/03 10:56:16;;;;;;;;;21.33;12.33;;;;;11.67;68.79;99843.47;5067355;28;45629;-85
2021/11/03 10:58:50;;;;;;;;;14.67;13.33;;;;;11.86;67.06;99839.56;5068522;27;45433;-85
2021/11/03 11:01:22;;;;;;;;;15.33;14.33;;;;;12.07;68.18;99839.22;5060068;28;45453;-85
2021/11/03 11:04:04;;;;;;;;;18.00;15.00;;;;;12.26;67.61;99844.97;5066896;27;45472;-85
2021/11/03 11:07:00;;;;;;;;;16.00;14.33;;;;;12.54;66.67;99843.81;5059405;28;45422;-85
2021/11/03 11:09:46;;;;;;;;;18.67;13.33;;;;;12.77;66.36;99839.06;5029788;28;45615;-84
2021/11/03 11:12:32;;;;;;;;;16.67;13.67;;;;;12.88;66.75;99841.94;5029498;28;46291;-84
2021/11/03 11:15:23;;;;;;;;;17.67;15.33;;;;;13.00;64.85;99840.41;5007952;28;45444;-83
2021/11/03 11:18:02;;;;;;;;;15.33;13.00;;;;;12.87;65.01;99832.25;5009381;28;45630;-86
2021/11/03 11:20:33;;;;;;;;;17.00;15.67;;;;;12.90;66.18;99844.59;5023104;28;46508;-83
2021/11/03 11:23:19;;;;;;;;;13.00;11.33;;;;;13.08;65.61;99846.72;5027912;28;49412;-84
2021/11/03 11:25:56;;;;;;;;;18.00;16.00;;;;;13.16;65.54;99838.97;5013896;28;45812;-83
2021/11/03 11:28:36;;;;;;;;;14.00;11.00;;;;;13.25;65.32;99844.44;5025163;28;45427;-83
2021/11/03 11:31:19;;;;;;;;;12.00;12.00;;;;;13.40;65.09;99854.38;5022826;28;46630;-86
2021/11/03 11:34:06;;;;;;;;;11.67;9.00;;;;;13.43;63.37;99847.38;5025295;28;46107;-83